Time,TemperatureF,DewpointF,PressureIn,WindDirection,WindDirectionDegrees,WindSpeedMPH,WindSpeedGustMPH,Humidity,HourlyPrecipIn,Conditions,Clouds,dailyrainin,SolarRadiationWatts/m^2,SoftwareType,DateUTC
2013-08-25 00:01:00,80.0,73.0,-100.00,South,172,0.0,7.0,78,0.00,,,0.04,1.000000,,2013-08-25 07:01:00,
2013-08-25 00:12:00,80.0,73.0,-100.00,South,172,0.0,7.0,78,0.00,,,0.04,1.000000,,2013-08-25 07:12:00,
2013-08-25 00:42:00,78.0,73.0,-100.00,NNW,332,0.0,11.0,84,0.00,,,0.04,1.000000,,2013-08-25 07:42:00,
2013-08-25 00:52:00,78.0,73.0,-100.00,NNW,332,0.0,11.0,84,0.00,,,0.04,1.000000,,2013-08-25 07:52:00,
2013-08-25 01:02:00,78.0,73.0,-100.00,NNW,332,0.0,11.0,84,0.00,,,0.04,1.000000,,2013-08-25 08:02:00,
2013-08-25 01:12:00,78.0,73.0,-100.00,NNW,332,0.0,11.0,84,0.00,,,0.04,1.000000,,2013-08-25 08:12:00,
2013-08-25 01:42:00,79.0,73.0,-100.00,North,2,0.0,2.0,81,0.00,,,0.04,1.000000,,2013-08-25 08:42:00,
2013-08-25 01:52:00,79.0,73.0,-100.00,North,2,0.0,2.0,81,0.00,,,0.04,1.000000,,2013-08-25 08:52:00,
2013-08-25 02:01:00,79.0,73.0,-100.00,North,2,0.0,2.0,81,0.00,,,0.04,1.000000,,2013-08-25 09:01:00,
2013-08-25 02:11:00,79.0,73.0,-100.00,North,2,0.0,2.0,81,0.00,,,0.04,1.000000,,2013-08-25 09:11:00,
2013-08-25 02:44:00,81.0,73.0,-100.00,East,90,5.0,7.0,76,0.00,,,0.04,1.000000,,2013-08-25 09:44:00,
2013-08-25 02:55:00,81.0,73.0,-100.00,East,90,5.0,7.0,76,0.00,,,0.04,1.000000,,2013-08-25 09:55:00,
2013-08-25 03:03:00,81.0,73.0,-100.00,East,90,5.0,7.0,76,0.00,,,0.04,1.000000,,2013-08-25 10:03:00,
2013-08-25 03:12:00,81.0,73.0,-100.00,East,90,5.0,7.0,76,0.00,,,0.04,1.000000,,2013-08-25 10:12:00,
2013-08-25 03:42:00,80.0,72.0,-100.00,ENE,69,7.0,10.0,76,0.00,,,0.04,1.000000,,2013-08-25 10:42:00,
2013-08-25 03:53:00,80.0,72.0,-100.00,ENE,69,7.0,10.0,76,0.00,,,0.04,1.000000,,2013-08-25 10:53:00,
2013-08-25 04:02:00,80.0,72.0,-100.00,ENE,69,7.0,10.0,76,0.00,,,0.04,1.000000,,2013-08-25 11:02:00,
2013-08-25 04:11:00,80.0,72.0,-100.00,ENE,69,7.0,10.0,76,0.00,,,0.04,1.000000,,2013-08-25 11:11:00,
2013-08-25 04:42:00,80.0,71.0,-100.00,ENE,65,5.0,8.0,73,0.00,,,0.04,1.000000,,2013-08-25 11:42:00,
2013-08-25 04:52:00,80.0,71.0,-100.00,ENE,65,5.0,8.0,73,0.00,,,0.04,1.000000,,2013-08-25 11:52:00,
2013-08-25 05:01:00,80.0,71.0,-100.00,ENE,65,5.0,8.0,73,0.00,,,0.04,1.000000,,2013-08-25 12:01:00,
2013-08-25 05:12:00,80.0,71.0,-100.00,ENE,65,5.0,8.0,73,0.00,,,0.04,1.000000,,2013-08-25 12:12:00,
2013-08-25 05:43:00,81.0,71.0,-100.00,ENE,64,0.0,5.0,71,0.00,,,0.04,1.000000,,2013-08-25 12:43:00,
2013-08-25 05:52:00,81.0,71.0,-100.00,ENE,64,0.0,5.0,71,0.00,,,0.04,1.000000,,2013-08-25 12:52:00,
2013-08-25 06:02:00,81.0,71.0,-100.00,ENE,64,0.0,5.0,71,0.00,,,0.04,1.000000,,2013-08-25 13:02:00,
2013-08-25 06:11:00,81.0,71.0,-100.00,ENE,64,0.0,5.0,71,0.00,,,0.04,1.000000,,2013-08-25 13:11:00,
2013-08-25 06:42:00,81.0,72.0,-100.00,East,90,0.0,0.0,73,0.00,,,0.04,1.000000,,2013-08-25 13:42:00,
2013-08-25 06:52:00,81.0,72.0,-100.00,East,90,0.0,0.0,73,0.00,,,0.04,1.000000,,2013-08-25 13:52:00,
2013-08-25 07:02:00,81.0,72.0,-100.00,East,90,0.0,0.0,73,0.00,,,0.04,1.000000,,2013-08-25 14:02:00,
2013-08-25 07:11:00,81.0,72.0,-100.00,East,90,0.0,0.0,73,0.00,,,0.04,1.000000,,2013-08-25 14:11:00,
2013-08-25 07:42:00,82.0,74.0,-100.00,ESE,110,0.0,0.0,77,0.00,,,0.04,33.000000,,2013-08-25 14:42:00,
2013-08-25 07:52:00,82.0,74.0,-100.00,ESE,110,0.0,0.0,77,0.00,,,0.04,33.000000,,2013-08-25 14:52:00,
2013-08-25 08:01:00,82.0,74.0,-100.00,ESE,110,0.0,0.0,77,0.00,,,0.04,33.000000,,2013-08-25 15:01:00,
2013-08-25 08:11:00,82.0,74.0,-100.00,ESE,110,0.0,0.0,77,0.00,,,0.04,33.000000,,2013-08-25 15:11:00,
2013-08-25 08:44:00,83.0,75.0,-100.00,ESE,121,0.0,0.0,77,0.00,,,0.04,127.000000,,2013-08-25 15:44:00,
2013-08-25 08:54:00,83.0,75.0,-100.00,ESE,121,0.0,0.0,77,0.00,,,0.04,127.000000,,2013-08-25 15:54:00,
2013-08-25 09:04:00,83.0,75.0,-100.00,ESE,121,0.0,0.0,77,0.00,,,0.04,127.000000,,2013-08-25 16:04:00,
2013-08-25 09:13:00,83.0,75.0,-100.00,ESE,121,0.0,0.0,77,0.00,,,0.04,127.000000,,2013-08-25 16:13:00,
2013-08-25 09:44:00,85.0,75.0,-100.00,ESE,122,0.0,0.0,71,0.00,,,0.04,173.000000,,2013-08-25 16:44:00,
2013-08-25 09:54:00,85.0,75.0,-100.00,ESE,122,0.0,0.0,71,0.00,,,0.04,173.000000,,2013-08-25 16:54:00,
2013-08-25 10:03:00,85.0,75.0,-100.00,ESE,122,0.0,0.0,71,0.00,,,0.04,173.000000,,2013-08-25 17:03:00,
2013-08-25 10:11:00,85.0,75.0,-100.00,ESE,122,0.0,0.0,71,0.00,,,0.04,173.000000,,2013-08-25 17:11:00,
2013-08-25 10:43:00,87.0,71.0,-100.00,SE,129,9.0,15.0,60,0.00,,,0.04,290.000000,,2013-08-25 17:43:00,
2013-08-25 10:53:00,87.0,71.0,-100.00,SE,129,9.0,15.0,60,0.00,,,0.04,290.000000,,2013-08-25 17:53:00,
2013-08-25 11:02:00,87.0,71.0,-100.00,SE,129,9.0,15.0,60,0.00,,,0.04,290.000000,,2013-08-25 18:02:00,
2013-08-25 11:12:00,87.0,71.0,-100.00,SE,129,9.0,15.0,60,0.00,,,0.04,290.000000,,2013-08-25 18:12:00,
2013-08-25 11:43:00,87.0,71.0,-100.00,ESE,123,7.0,13.0,60,0.00,,,0.04,245.000000,,2013-08-25 18:43:00,
2013-08-25 11:52:00,87.0,71.0,-100.00,ESE,123,7.0,13.0,60,0.00,,,0.04,245.000000,,2013-08-25 18:52:00,
2013-08-25 12:02:00,87.0,71.0,-100.00,ESE,123,7.0,13.0,60,0.00,,,0.04,245.000000,,2013-08-25 19:02:00,
2013-08-25 12:11:00,87.0,71.0,-100.00,ESE,123,7.0,13.0,60,0.00,,,0.04,245.000000,,2013-08-25 19:11:00,
2013-08-25 12:42:00,88.0,71.0,-100.00,East,82,6.0,11.0,57,0.00,,,0.04,355.000000,,2013-08-25 19:42:00,
2013-08-25 12:53:00,88.0,71.0,-100.00,East,82,6.0,11.0,57,0.00,,,0.04,355.000000,,2013-08-25 19:53:00,
2013-08-25 13:03:00,88.0,71.0,-100.00,East,82,6.0,11.0,57,0.00,,,0.04,355.000000,,2013-08-25 20:03:00,
2013-08-25 13:12:00,88.0,71.0,-100.00,East,82,6.0,11.0,57,0.00,,,0.04,355.000000,,2013-08-25 20:12:00,
2013-08-25 13:43:00,87.0,70.0,-100.00,ESE,121,4.0,10.0,58,0.00,,,0.04,272.000000,,2013-08-25 20:43:00,
2013-08-25 13:53:00,87.0,70.0,-100.00,ESE,121,4.0,10.0,58,0.00,,,0.04,272.000000,,2013-08-25 20:53:00,
2013-08-25 14:01:00,87.0,70.0,-100.00,ESE,121,4.0,10.0,58,0.00,,,0.04,272.000000,,2013-08-25 21:01:00,
2013-08-25 14:12:00,87.0,70.0,-100.00,ESE,121,4.0,10.0,58,0.00,,,0.04,272.000000,,2013-08-25 21:12:00,
2013-08-25 14:43:00,88.0,70.0,-100.00,East,87,4.0,7.0,55,0.00,,,0.04,289.000000,,2013-08-25 21:43:00,
2013-08-25 14:55:00,88.0,70.0,-100.00,East,87,4.0,7.0,55,0.00,,,0.04,289.000000,,2013-08-25 21:55:00,
2013-08-25 15:03:00,88.0,70.0,-100.00,East,87,4.0,7.0,55,0.00,,,0.04,289.000000,,2013-08-25 22:03:00,
2013-08-25 15:13:00,88.0,70.0,-100.00,East,87,4.0,7.0,55,0.00,,,0.04,289.000000,,2013-08-25 22:13:00,
2013-08-25 15:43:00,88.0,68.0,-100.00,SSE,157,6.0,9.0,52,0.00,,,0.04,277.000000,,2013-08-25 22:43:00,
2013-08-25 15:53:00,88.0,68.0,-100.00,SSE,157,6.0,9.0,52,0.00,,,0.04,277.000000,,2013-08-25 22:53:00,
2013-08-25 16:03:00,88.0,68.0,-100.00,SSE,157,6.0,9.0,52,0.00,,,0.04,277.000000,,2013-08-25 23:03:00,
2013-08-25 16:12:00,88.0,68.0,-100.00,SSE,157,6.0,9.0,52,0.00,,,0.04,277.000000,,2013-08-25 23:12:00,
2013-08-25 16:43:00,86.0,65.0,-100.00,ENE,66,7.0,11.0,49,0.00,,,0.04,219.000000,,2013-08-25 23:43:00,
2013-08-25 16:53:00,86.0,65.0,-100.00,ENE,66,7.0,11.0,49,0.00,,,0.04,219.000000,,2013-08-25 23:53:00,
2013-08-25 17:02:00,86.0,65.0,-100.00,ENE,66,7.0,11.0,49,0.00,,,0.04,219.000000,,2013-08-26 00:02:00,
2013-08-25 17:11:00,86.0,65.0,-100.00,ENE,66,7.0,11.0,49,0.00,,,0.04,219.000000,,2013-08-26 00:11:00,
2013-08-25 17:42:00,86.0,67.0,-100.00,East,96,5.0,9.0,54,0.00,,,0.04,130.000000,,2013-08-26 00:42:00,
2013-08-25 17:52:00,86.0,67.0,-100.00,East,96,5.0,9.0,54,0.00,,,0.04,130.000000,,2013-08-26 00:52:00,
2013-08-25 18:01:00,86.0,67.0,-100.00,East,96,5.0,9.0,54,0.00,,,0.04,130.000000,,2013-08-26 01:01:00,
2013-08-25 18:11:00,86.0,67.0,-100.00,East,96,5.0,9.0,54,0.00,,,0.04,130.000000,,2013-08-26 01:11:00,
2013-08-25 18:42:00,86.0,69.0,-100.00,East,91,3.0,8.0,57,0.00,,,0.04,44.000000,,2013-08-26 01:42:00,
2013-08-25 18:52:00,86.0,69.0,-100.00,East,91,3.0,8.0,57,0.00,,,0.04,44.000000,,2013-08-26 01:52:00,
2013-08-25 19:02:00,86.0,69.0,-100.00,East,91,3.0,8.0,57,0.00,,,0.04,44.000000,,2013-08-26 02:02:00,
2013-08-25 19:11:00,86.0,69.0,-100.00,East,91,3.0,8.0,57,0.00,,,0.04,44.000000,,2013-08-26 02:11:00,
2013-08-25 19:42:00,85.0,69.0,-100.00,NE,36,0.0,8.0,59,0.00,,,0.01,9.000000,,2013-08-26 02:42:00,
2013-08-25 19:52:00,85.0,69.0,-100.00,NE,36,0.0,8.0,59,0.00,,,0.01,9.000000,,2013-08-26 02:52:00,
2013-08-25 20:02:00,85.0,69.0,-100.00,NE,36,0.0,8.0,59,0.00,,,0.01,9.000000,,2013-08-26 03:02:00,
2013-08-25 20:11:00,85.0,69.0,-100.00,NE,36,0.0,8.0,59,0.00,,,0.01,9.000000,,2013-08-26 03:11:00,
2013-08-25 20:44:00,83.0,70.0,-100.00,NNE,14,0.0,0.0,64,0.00,,,0.00,1.000000,,2013-08-26 03:44:00,
2013-08-25 20:56:00,83.0,70.0,-100.00,NNE,14,0.0,0.0,64,0.00,,,0.00,1.000000,,2013-08-26 03:56:00,
2013-08-25 21:05:00,83.0,70.0,-100.00,NNE,14,0.0,0.0,64,0.00,,,0.00,1.000000,,2013-08-26 04:05:00,
2013-08-25 21:14:00,83.0,70.0,-100.00,NNE,14,0.0,0.0,64,0.00,,,0.00,1.000000,,2013-08-26 04:14:00,
2013-08-25 21:44:00,82.0,69.0,-100.00,ENE,58,0.0,0.0,66,0.00,,,-99.99,1.000000,,2013-08-26 04:44:00,
2013-08-25 21:53:00,82.0,69.0,-100.00,ENE,58,0.0,0.0,66,0.00,,,-99.99,1.000000,,2013-08-26 04:53:00,
2013-08-25 22:03:00,82.0,69.0,-100.00,ENE,58,0.0,0.0,66,0.00,,,-99.99,1.000000,,2013-08-26 05:03:00,
2013-08-25 22:13:00,82.0,69.0,-100.00,ENE,58,0.0,0.0,66,0.00,,,-99.99,1.000000,,2013-08-26 05:13:00,
2013-08-25 22:44:00,81.0,69.0,-100.00,NE,52,0.0,0.0,66,0.00,,,0.00,1.000000,,2013-08-26 05:44:00,
2013-08-25 22:52:00,81.0,69.0,-100.00,NE,52,0.0,0.0,66,0.00,,,0.00,1.000000,,2013-08-26 05:52:00,
2013-08-25 23:02:00,81.0,69.0,-100.00,NE,52,0.0,0.0,66,0.00,,,0.00,1.000000,,2013-08-26 06:02:00,
2013-08-25 23:12:00,81.0,69.0,-100.00,NE,52,0.0,0.0,66,0.00,,,0.00,1.000000,,2013-08-26 06:12:00,
2013-08-25 23:42:00,81.0,68.0,-100.00,NE,47,0.0,0.0,65,0.00,,,0.00,1.000000,,2013-08-26 06:42:00,
2013-08-25 23:52:00,81.0,68.0,-100.00,NE,47,0.0,0.0,65,0.00,,,0.00,1.000000,,2013-08-26 06:52:00,